Time;durP1;ratioP1;P1;durP2;ratioP2;P2;SDS_P1;SDS_P2;PMS_P1;PMS_P2;Temp;Humidity;BMP_temperature;BMP_pressure;BME280_temperature;BME280_humidity;BME280_pressure;Samples;Min_cycle;Max_cycle;Signal;HPM_P1;HPM_P2
2023/08/21 00:01:20;;;;;;;1.33;1.23;;;19.60;99.90;;;;;;5082125;28;20008;-75
2023/08/21 00:03:47;;;;;;;0.75;0.75;;;19.60;99.90;;;;;;5081466;28;20044;-79
2023/08/21 00:06:13;;;;;;;0.10;0.10;;;19.70;99.90;;;;;;5078978;28;20534;-76
2023/08/21 00:08:40;;;;;;;0.45;0.38;;;19.60;99.90;;;;;;5081656;28;20462;-76
2023/08/21 00:11:06;;;;;;;0.55;0.52;;;19.60;99.90;;;;;;5060987;28;20051;-78
2023/08/21 00:13:32;;;;;;;0.73;0.73;;;19.50;99.90;;;;;;5078293;28;20132;-81
2023/08/21 00:15:58;;;;;;;0.00;0.00;;;19.60;99.90;;;;;;5081304;28;20321;-78
2023/08/21 00:18:24;;;;;;;0.10;0.10;;;19.60;99.90;;;;;;5062367;28;20066;-76
2023/08/21 00:20:50;;;;;;;0.73;0.57;;;19.80;99.90;;;;;;5079317;28;20020;-75
2023/08/21 00:23:16;;;;;;;0.10;0.10;;;19.40;99.90;;;;;;5081164;28;20017;-78
2023/08/21 00:25:47;;;;;;;0.10;0.10;;;22.80;99.90;;;;;;5083048;28;20050;-75
2023/08/21 00:28:14;;;;;;;0.20;0.20;;;19.10;99.90;;;;;;5061539;28;20020;-79
2023/08/21 00:30:39;;;;;;;0.10;0.10;;;19.20;99.90;;;;;;5060405;28;20114;-76
2023/08/21 00:33:05;;;;;;;0.20;0.20;;;19.20;99.90;;;;;;5061057;28;20127;-81
2023/08/21 00:35:31;;;;;;;0.10;0.10;;;19.20;99.90;;;;;;5082428;28;20107;-75
2023/08/21 00:37:57;;;;;;;0.10;0.10;;;16.70;99.90;;;;;;5081813;28;20135;-75
2023/08/21 00:40:23;;;;;;;0.43;0.43;;;19.20;99.90;;;;;;5066183;28;20498;-82
2023/08/21 00:42:49;;;;;;;0.10;0.10;;;19.20;99.90;;;;;;5066431;28;20028;-76
2023/08/21 00:45:15;;;;;;;0.32;0.32;;;19.40;99.90;;;;;;5067303;28;20028;-78
2023/08/21 00:47:42;;;;;;;0.10;0.10;;;19.40;99.90;;;;;;5082552;28;20028;-76
2023/08/21 00:50:11;;;;;;;0.05;0.05;;;19.40;99.90;;;;;;5066656;28;20023;-76
2023/08/21 00:52:39;;;;;;;0.10;0.10;;;19.30;99.90;;;;;;5085226;28;20630;-77
2023/08/21 00:55:08;;;;;;;0.20;0.20;;;19.30;99.90;;;;;;5081745;28;20035;-76
2023/08/21 00:57:36;;;;;;;0.08;0.08;;;19.20;99.90;;;;;;5066459;28;20016;-76
2023/08/21 01:00:04;;;;;;;0.45;0.45;;;19.20;99.90;;;;;;5081812;28;20584;-81
2023/08/21 01:02:30;;;;;;;0.47;0.47;;;19.30;99.90;;;;;;5085204;28;20071;-75
2023/08/21 01:04:57;;;;;;;0.17;0.17;;;19.20;99.90;;;;;;5085757;28;20035;-76
2023/08/21 01:07:24;;;;;;;0.20;0.20;;;17.80;99.90;;;;;;5066714;28;20512;-75
2023/08/21 01:09:56;;;;;;;0.10;0.10;;;19.40;99.90;;;;;;5085267;28;20664;-75
2023/08/21 01:12:53;;;;;;;0.10;0.10;;;20.00;99.90;;;;;;5068128;28;20048;-76
2023/08/21 01:15:20;;;;;;;0.10;0.10;;;20.20;99.90;;;;;;4979154;28;20042;-83
2023/08/21 01:17:47;;;;;;;0.15;0.15;;;18.20;99.90;;;;;;4982572;28;20518;-76
2023/08/21 01:20:14;;;;;;;0.25;0.25;;;19.50;99.90;;;;;;4978752;28;20041;-79
2023/08/21 01:22:45;;;;;;;3.40;3.22;;;19.40;99.90;;;;;;4978362;28;20065;-76
2023/08/21 01:25:11;;;;;;;0.20;0.20;;;19.40;99.90;;;;;;4979679;28;20097;-80
2023/08/21 01:27:41;;;;;;;0.50;0.50;;;19.70;99.90;;;;;;4981285;28;20049;-76
2023/08/21 01:30:08;;;;;;;0.20;0.20;;;19.80;99.90;;;;;;4962881;28;20504;-75
2023/08/21 01:32:58;;;;;;;0.25;0.25;;;19.90;99.90;;;;;;4981331;28;20046;-76
2023/08/21 01:35:24;;;;;;;0.10;0.10;;;19.90;99.90;;;;;;4979350;28;20077;-75
2023/08/21 01:37:52;;;;;;;0.20;0.20;;;20.00;99.90;;;;;;4964844;28;20029;-75
2023/08/21 01:40:25;;;;;;;0.13;0.13;;;16.90;99.90;;;;;;4965377;28;20042;-76
2023/08/21 01:42:53;;;;;;;0.10;0.10;;;20.00;99.90;;;;;;4980850;28;20057;-75
2023/08/21 01:45:19;;;;;;;0.68;0.68;;;20.20;99.90;;;;;;4996016;28;20034;-76
2023/08/21 01:47:45;;;;;;;0.10;0.10;;;19.90;99.90;;;;;;4980014;28;20485;-75
2023/08/21 01:50:11;;;;;;;0.10;0.10;;;19.40;99.90;;;;;;4964068;28;20094;-80
2023/08/21 01:52:36;;;;;;;0.20;0.20;;;20.00;99.90;;;;;;5048282;28;20138;-75
2023/08/21 01:55:03;;;;;;;3.88;3.67;;;19.90;99.90;;;;;;5064877;28;20426;-76
2023/08/21 01:57:29;;;;;;;2.00;1.85;;;20.00;99.90;;;;;;5065634;28;20033;-77
2023/08/21 01:59:56;;;;;;;0.80;0.80;;;19.90;99.90;;;;;;5066436;28;20032;-76
2023/08/21 02:02:22;;;;;;;0.85;0.85;;;;;;;;;;5083042;28;20130;-76
2023/08/21 02:04:49;;;;;;;0.20;0.20;;;20.00;99.90;;;;;;5082516;28;20020;-75
2023/08/21 02:07:15;;;;;;;0.52;0.52;;;;;;;;;;5081372;28;20485;-75
2023/08/21 02:09:41;;;;;;;0.35;0.35;;;20.00;99.90;;;;;;5065218;28;20119;-75
2023/08/21 02:12:07;;;;;;;0.10;0.10;;;19.90;99.90;;;;;;5082357;28;20426;-76
2023/08/21 02:14:37;;;;;;;0.93;0.85;;;19.90;99.90;;;;;;5082278;28;20077;-76
2023/08/21 02:17:03;;;;;;;0.10;0.10;;;19.70;99.90;;;;;;5082870;28;20555;-76
2023/08/21 02:19:29;;;;;;;0.63;0.63;;;19.60;99.90;;;;;;5083402;28;20024;-77
2023/08/21 02:21:55;;;;;;;0.70;0.68;;;19.90;99.90;;;;;;5082140;28;20027;-76
2023/08/21 02:24:21;;;;;;;8.85;3.63;;;19.80;99.90;;;;;;5082747;28;20082;-76
2023/08/21 02:26:47;;;;;;;0.55;0.50;;;19.60;99.90;;;;;;5082249;28;20550;-75
2023/08/21 02:29:13;;;;;;;0.55;0.55;;;19.80;99.90;;;;;;5080501;28;20036;-79
2023/08/21 02:31:39;;;;;;;0.50;0.50;;;20.00;99.90;;;;;;5081819;28;20093;-80
2023/08/21 02:34:06;;;;;;;0.28;0.28;;;20.10;99.90;;;;;;5064687;28;20044;-75
2023/08/21 02:36:32;;;;;;;0.20;0.20;;;20.00;99.90;;;;;;5062628;28;20573;-76
2023/08/21 02:38:58;;;;;;;0.10;0.10;;;19.70;99.90;;;;;;5089143;28;20054;-76
2023/08/21 02:41:24;;;;;;;0.10;0.10;;;;;;;;;;5089089;28;20020;-75
2023/08/21 02:43:50;;;;;;;0.00;0.00;;;20.10;99.90;;;;;;5063164;28;20031;-75
2023/08/21 02:46:17;;;;;;;1.75;1.65;;;19.80;99.90;;;;;;5079341;28;20032;-76
2023/08/21 02:48:43;;;;;;;0.15;0.15;;;19.40;99.90;;;;;;5062354;28;20388;-76
2023/08/21 02:51:08;;;;;;;0.10;0.10;;;19.10;99.90;;;;;;5079272;28;20107;-80
2023/08/21 02:53:34;;;;;;;0.35;0.35;;;18.90;99.90;;;;;;5060375;28;20501;-86
2023/08/21 02:56:00;;;;;;;0.10;0.10;;;18.70;99.90;;;;;;5079498;28;20039;-78
2023/08/21 02:58:25;;;;;;;0.10;0.10;;;18.70;99.90;;;;;;5080757;28;20052;-75
2023/08/21 03:00:51;;;;;;;0.20;0.20;;;18.90;99.90;;;;;;5082618;28;20016;-76
2023/08/21 03:03:17;;;;;;;0.50;0.50;;;19.00;99.90;;;;;;5081600;28;20040;-76
2023/08/21 03:05:43;;;;;;;0.32;0.32;;;19.30;99.90;;;;;;5082003;28;20016;-79
2023/08/21 03:08:09;;;;;;;0.10;0.10;;;19.40;99.90;;;;;;5080881;28;20393;-75
2023/08/21 03:10:36;;;;;;;0.10;0.10;;;19.40;99.90;;;;;;5061112;28;20023;-76
2023/08/21 03:13:02;;;;;;;0.10;0.10;;;19.30;99.90;;;;;;5080556;28;20036;-76
2023/08/21 03:15:28;;;;;;;2.20;2.05;;;19.00;99.90;;;;;;5061862;28;20028;-80
2023/08/21 03:17:57;;;;;;;0.30;0.30;;;19.00;99.90;;;;;;5082620;28;20024;-78
2023/08/21 03:20:24;;;;;;;0.25;0.25;;;19.10;99.90;;;;;;5064589;28;20257;-76
2023/08/21 03:22:50;;;;;;;0.98;0.98;;;19.30;99.90;;;;;;5082203;28;20077;-77
2023/08/21 03:25:16;;;;;;;0.10;0.10;;;19.20;99.90;;;;;;5082462;28;20020;-75
2023/08/21 03:27:44;;;;;;;0.10;0.10;;;19.30;99.90;;;;;;5062758;28;20032;-76
2023/08/21 03:30:10;;;;;;;0.20;0.20;;;19.30;99.90;;;;;;5083081;28;20016;-74
2023/08/21 03:32:36;;;;;;;0.10;0.10;;;19.10;99.90;;;;;;5080701;28;20021;-74
2023/08/21 03:35:02;;;;;;;1.67;1.55;;;18.90;99.90;;;;;;5064113;28;20081;-76
2023/08/21 03:37:28;;;;;;;0.25;0.25;;;18.80;99.90;;;;;;5064117;28;20134;-77
2023/08/21 03:39:54;;;;;;;0.08;0.08;;;18.90;99.90;;;;;;5078550;28;20035;-88
2023/08/21 03:42:20;;;;;;;1.42;1.33;;;19.10;99.90;;;;;;5082016;28;20020;-75
2023/08/21 03:44:49;;;;;;;0.40;0.40;;;19.40;99.90;;;;;;5082178;28;20356;-75
2023/08/21 03:47:16;;;;;;;0.55;0.55;;;19.40;99.90;;;;;;5063841;28;20413;-75
2023/08/21 03:49:42;;;;;;;1.48;1.13;;;19.50;99.90;;;;;;5079777;28;20050;-75
2023/08/21 03:52:08;;;;;;;0.10;0.10;;;19.60;99.90;;;;;;5078564;28;20262;-81
2023/08/21 03:54:33;;;;;;;0.10;0.10;;;19.90;99.90;;;;;;5078812;28;20043;-83
2023/08/21 03:56:59;;;;;;;1.45;1.30;;;20.10;99.90;;;;;;5077985;28;20024;-75
2023/08/21 03:59:27;;;;;;;0.30;0.30;;;20.30;99.90;;;;;;5077618;28;20032;-75
2023/08/21 04:01:53;;;;;;;0.20;0.20;;;20.50;99.90;;;;;;5078585;28;20065;-76
2023/08/21 04:04:19;;;;;;;0.10;0.10;;;20.60;99.90;;;;;;5078152;28;20028;-79
2023/08/21 04:06:45;;;;;;;0.90;0.90;;;20.70;99.90;;;;;;5077726;28;20497;-83
2023/08/21 04:09:11;;;;;;;3.03;2.83;;;20.70;99.90;;;;;;5080753;28;20278;-75
2023/08/21 04:11:37;;;;;;;0.40;0.40;;;20.70;99.90;;;;;;5081147;28;20016;-78
2023/08/21 04:14:04;;;;;;;0.30;0.30;;;21.10;99.90;;;;;;5081311;28;20031;-77
2023/08/21 04:16:30;;;;;;;0.63;0.63;;;20.20;99.90;;;;;;5080282;28;20027;-76
2023/08/21 04:18:57;;;;;;;0.10;0.10;;;21.30;99.90;;;;;;5081010;28;20016;-75
2023/08/21 04:21:23;;;;;;;1.02;1.00;;;;;;;;;;5078093;28;20016;-81
2023/08/21 04:23:49;;;;;;;0.17;0.17;;;19.90;99.90;;;;;;5080816;28;20416;-78
2023/08/21 04:26:15;;;;;;;0.20;0.20;;;17.50;99.90;;;;;;5080786;28;20142;-77
2023/08/21 04:28:41;;;;;;;0.00;0.00;;;16.70;99.90;;;;;;5080293;28;20051;-80
2023/08/21 04:31:08;;;;;;;0.90;0.90;;;20.20;99.90;;;;;;5080618;28;20020;-78
2023/08/21 04:33:34;;;;;;;0.20;0.20;;;20.00;99.90;;;;;;5062388;28;20032;-77
2023/08/21 04:36:01;;;;;;;0.10;0.10;;;;;;;;;;5078780;28;20539;-76
2023/08/21 04:38:27;;;;;;;0.13;0.13;;;20.80;99.90;;;;;;5060932;28;20504;-77
2023/08/21 04:40:53;;;;;;;0.10;0.10;;;19.90;99.90;;;;;;5078734;28;20016;-77
2023/08/21 04:43:19;;;;;;;1.80;1.65;;;20.10;99.90;;;;;;5062667;28;20035;-79
2023/08/21 04:45:54;;;;;;;0.75;0.75;;;20.30;99.90;;;;;;5079955;28;20012;-82
2023/08/21 04:48:21;;;;;;;0.10;0.10;;;;;;;;;;5080024;28;20089;-78
2023/08/21 04:50:47;;;;;;;1.23;1.23;;;20.60;99.90;;;;;;5079871;28;20206;-76
2023/08/21 04:53:13;;;;;;;0.40;0.40;;;20.50;99.90;;;;;;5059081;28;20141;-77
2023/08/21 04:55:42;;;;;;;3.35;3.10;;;20.50;99.90;;;;;;5076885;28;20473;-82
2023/08/21 04:58:09;;;;;;;0.15;0.15;;;18.90;99.90;;;;;;5077766;28;20032;-79
2023/08/21 05:00:35;;;;;;;0.65;0.65;;;20.50;99.90;;;;;;5077918;28;20035;-78
2023/08/21 05:03:01;;;;;;;4.18;3.88;;;20.60;99.90;;;;;;5079285;28;20132;-79
2023/08/21 05:05:26;;;;;;;0.22;0.22;;;20.80;99.90;;;;;;5080102;28;20040;-77
2023/08/21 05:07:53;;;;;;;0.30;0.30;;;21.00;99.90;;;;;;5079419;28;20016;-77
2023/08/21 05:10:19;;;;;;;0.10;0.10;;;21.10;99.90;;;;;;5080195;28;20024;-76
2023/08/21 05:12:46;;;;;;;0.10;0.10;;;21.10;99.90;;;;;;5080372;28;20270;-75
2023/08/21 05:15:12;;;;;;;0.20;0.20;;;19.30;99.90;;;;;;5061159;28;20020;-77
2023/08/21 05:17:39;;;;;;;0.10;0.10;;;21.20;99.90;;;;;;5061438;28;20230;-75
2023/08/21 05:20:05;;;;;;;0.45;0.45;;;21.10;99.90;;;;;;5081701;28;20012;-75
2023/08/21 05:22:31;;;;;;;0.50;0.50;;;21.30;99.90;;;;;;5064131;28;20516;-76
2023/08/21 05:24:57;;;;;;;0.10;0.10;;;21.70;99.90;;;;;;5083029;28;20417;-75
2023/08/21 05:27:23;;;;;;;0.10;0.10;;;21.30;99.90;;;;;;5083650;28;20086;-75
2023/08/21 05:29:51;;;;;;;0.55;0.55;;;21.40;99.90;;;;;;5065691;28;20031;-81
2023/08/21 05:32:17;;;;;;;0.28;0.28;;;21.50;99.90;;;;;;5083568;28;20092;-77
2023/08/21 05:34:43;;;;;;;0.13;0.13;;;21.60;99.90;;;;;;5065589;28;20036;-76
2023/08/21 05:37:09;;;;;;;0.80;0.65;;;22.30;99.90;;;;;;5083055;28;20020;-76
2023/08/21 05:39:35;;;;;;;0.10;0.10;;;21.30;99.90;;;;;;5080738;28;20075;-82
2023/08/21 05:42:01;;;;;;;0.10;0.10;;;21.40;99.90;;;;;;5082722;28;20505;-79
2023/08/21 05:44:27;;;;;;;0.10;0.10;;;21.30;99.90;;;;;;5064728;28;20031;-76
2023/08/21 05:46:54;;;;;;;1.05;1.02;;;21.30;99.90;;;;;;5081577;28;20346;-76
2023/08/21 05:49:20;;;;;;;0.25;0.25;;;;;;;;;;5065513;28;20328;-79
2023/08/21 05:51:46;;;;;;;0.90;0.85;;;21.60;99.90;;;;;;5063156;28;20236;-76
2023/08/21 05:54:12;;;;;;;0.68;0.47;;;21.50;99.90;;;;;;5082539;28;20040;-78
2023/08/21 05:56:38;;;;;;;1.95;1.75;;;21.40;99.90;;;;;;5065060;28;20063;-76
2023/08/21 05:59:04;;;;;;;0.25;0.25;;;21.40;99.90;;;;;;5080425;28;20071;-86
2023/08/21 06:01:30;;;;;;;0.98;0.98;;;21.30;99.90;;;;;;5082645;28;20024;-77
2023/08/21 06:03:57;;;;;;;0.10;0.10;;;21.50;99.90;;;;;;5082397;28;20063;-75
2023/08/21 06:06:23;;;;;;;3.30;3.10;;;21.70;99.90;;;;;;5064716;28;20024;-81
2023/08/21 06:08:49;;;;;;;0.50;0.50;;;21.50;99.90;;;;;;5083002;28;20017;-76
2023/08/21 06:11:15;;;;;;;0.95;0.93;;;21.60;99.90;;;;;;5081268;28;20043;-75
2023/08/21 06:13:41;;;;;;;0.20;0.20;;;21.70;99.90;;;;;;5064471;28;20031;-77
2023/08/21 06:16:07;;;;;;;0.95;0.95;;;21.60;99.90;;;;;;5082580;28;20024;-78
2023/08/21 06:18:34;;;;;;;0.20;0.20;;;21.80;99.90;;;;;;5082941;28;20120;-76
2023/08/21 06:21:00;;;;;;;0.10;0.10;;;21.90;99.90;;;;;;5082577;28;20024;-76
2023/08/21 06:23:25;;;;;;;0.10;0.10;;;22.10;99.90;;;;;;5081801;28;20162;-75
2023/08/21 06:25:51;;;;;;;0.73;0.68;;;22.10;99.90;;;;;;5069053;28;20115;-83
2023/08/21 06:28:17;;;;;;;0.10;0.10;;;22.20;99.90;;;;;;5060880;28;20120;-76
2023/08/21 06:30:43;;;;;;;1.85;1.75;;;22.30;99.90;;;;;;5061201;28;20020;-76
2023/08/21 06:33:09;;;;;;;4.10;3.80;;;23.30;99.90;;;;;;5045420;28;20025;-77
2023/08/21 06:35:38;;;;;;;0.10;0.10;;;22.50;99.90;;;;;;5065518;28;20221;-75
2023/08/21 06:38:05;;;;;;;0.35;0.35;;;22.50;99.90;;;;;;5060220;28;20518;-81
2023/08/21 06:40:31;;;;;;;0.20;0.20;;;22.60;99.90;;;;;;5060821;28;20667;-81
2023/08/21 06:42:58;;;;;;;2.25;1.65;;;22.70;99.90;;;;;;5064889;28;20020;-78
2023/08/21 06:45:23;;;;;;;2.35;2.15;;;22.80;99.90;;;;;;5065001;28;20013;-81
2023/08/21 06:47:50;;;;;;;0.17;0.17;;;22.90;99.90;;;;;;5063674;28;20020;-75
2023/08/21 06:50:16;;;;;;;0.38;0.35;;;22.90;99.90;;;;;;5061419;28;20112;-75
2023/08/21 06:52:43;;;;;;;2.28;2.10;;;23.00;99.90;;;;;;5059925;28;20020;-79
2023/08/21 06:55:09;;;;;;;0.05;0.05;;;23.10;99.90;;;;;;5059684;28;20032;-81
2023/08/21 06:57:37;;;;;;;0.00;0.00;;;23.20;99.90;;;;;;5060903;28;20025;-77
2023/08/21 07:00:05;;;;;;;0.73;0.65;;;23.30;99.90;;;;;;5042395;28;20031;-75
2023/08/21 07:02:31;;;;;;;2.30;2.15;;;23.40;99.90;;;;;;5060317;28;20052;-76
2023/08/21 07:04:57;;;;;;;1.10;1.10;;;23.50;99.90;;;;;;5060639;28;20017;-80
2023/08/21 07:07:23;;;;;;;0.63;0.43;;;23.60;99.90;;;;;;5060412;28;20677;-75
2023/08/21 07:09:50;;;;;;;0.75;0.75;;;24.30;99.90;;;;;;5060919;28;20025;-75
2023/08/21 07:12:17;;;;;;;1.75;1.65;;;;;;;;;;5060620;28;20081;-77
2023/08/21 07:14:43;;;;;;;0.52;0.52;;;23.50;99.90;;;;;;5042550;28;20029;-75
2023/08/21 07:17:09;;;;;;;0.30;0.30;;;23.70;99.90;;;;;;5060651;28;20020;-75
2023/08/21 07:19:35;;;;;;;0.40;0.40;;;23.70;99.90;;;;;;5059736;28;20769;-83
2023/08/21 07:22:01;;;;;;;0.20;0.20;;;24.10;99.90;;;;;;5060198;28;20032;-75
2023/08/21 07:24:27;;;;;;;0.10;0.10;;;24.00;99.90;;;;;;5059856;28;20025;-77
2023/08/21 07:26:53;;;;;;;1.38;1.27;;;24.00;99.90;;;;;;5041559;28;20024;-74
2023/08/21 07:29:18;;;;;;;0.85;0.85;;;24.40;99.90;;;;;;5059169;28;20036;-75
2023/08/21 07:31:44;;;;;;;0.95;0.95;;;22.10;99.90;;;;;;5059063;28;20044;-86
2023/08/21 07:34:10;;;;;;;0.90;0.80;;;24.30;99.90;;;;;;5059137;28;20599;-84
2023/08/21 07:36:36;;;;;;;0.82;0.57;;;24.40;99.90;;;;;;5058708;28;20258;-82
2023/08/21 07:39:02;;;;;;;0.55;0.55;;;24.50;99.90;;;;;;5059034;28;20136;-75
2023/08/21 07:41:27;;;;;;;0.17;0.17;;;24.60;99.90;;;;;;5059082;28;20012;-79
2023/08/21 07:43:53;;;;;;;0.20;0.20;;;24.60;99.90;;;;;;5058344;28;20024;-81
2023/08/21 07:46:19;;;;;;;0.40;0.40;;;24.70;99.90;;;;;;5059128;28;20051;-79
2023/08/21 07:48:45;;;;;;;0.20;0.20;;;24.80;99.90;;;;;;5058791;28;20021;-77
2023/08/21 07:51:11;;;;;;;0.82;0.82;;;24.80;99.90;;;;;;5058290;28;20047;-75
2023/08/21 07:53:37;;;;;;;0.10;0.10;;;25.00;99.90;;;;;;5059289;28;20059;-76
2023/08/21 07:56:04;;;;;;;0.00;0.00;;;25.00;99.90;;;;;;5041557;28;20039;-75
2023/08/21 07:58:31;;;;;;;0.10;0.10;;;23.80;99.90;;;;;;5040780;28;20050;-77
2023/08/21 08:00:57;;;;;;;0.38;0.38;;;25.10;99.90;;;;;;5058571;28;20027;-83
2023/08/21 08:03:23;;;;;;;0.00;0.00;;;25.30;99.90;;;;;;5058211;28;20040;-84
2023/08/21 08:05:49;;;;;;;0.22;0.22;;;25.30;99.90;;;;;;5059691;28;20017;-79
2023/08/21 08:08:17;;;;;;;0.10;0.10;;;25.50;99.90;;;;;;5059645;28;20063;-74
2023/08/21 08:10:44;;;;;;;2.08;1.20;;;24.50;99.90;;;;;;5041219;28;20027;-78
2023/08/21 08:13:10;;;;;;;0.80;0.80;;;24.60;99.90;;;;;;5059906;28;20116;-75
2023/08/21 08:15:38;;;;;;;1.85;1.35;;;25.80;99.90;;;;;;5059301;28;20032;-75
2023/08/21 08:18:05;;;;;;;0.20;0.20;;;25.70;99.90;;;;;;5059399;28;20023;-77
2023/08/21 08:20:32;;;;;;;0.20;0.20;;;25.70;99.90;;;;;;5059388;28;20555;-77
2023/08/21 08:22:58;;;;;;;0.13;0.13;;;25.80;99.90;;;;;;5059843;28;20023;-75
2023/08/21 08:25:24;;;;;;;0.25;0.25;;;25.90;99.90;;;;;;5040930;28;20145;-74
2023/08/21 08:27:55;;;;;;;0.40;0.40;;;26.00;99.90;;;;;;5059784;28;20706;-75
2023/08/21 08:30:21;;;;;;;0.22;0.22;;;26.00;99.90;;;;;;5058013;28;20025;-85
2023/08/21 08:32:47;;;;;;;0.32;0.32;;;25.90;99.90;;;;;;5059557;28;20017;-75
2023/08/21 08:35:13;;;;;;;0.30;0.20;;;25.90;99.90;;;;;;5059609;28;20051;-75
2023/08/21 08:37:42;;;;;;;0.10;0.10;;;26.00;99.90;;;;;;5058075;28;20021;-79
2023/08/21 08:40:10;;;;;;;0.15;0.15;;;26.20;99.90;;;;;;5057795;28;20086;-84
2023/08/21 08:42:36;;;;;;;0.00;0.00;;;26.30;99.90;;;;;;5058355;28;20659;-78
2023/08/21 08:45:03;;;;;;;0.20;0.20;;;26.60;99.90;;;;;;5040424;28;20620;-80
2023/08/21 08:47:36;;;;;;;0.32;0.32;;;26.80;99.90;;;;;;5058915;28;20413;-82
2023/08/21 08:50:05;;;;;;;0.60;0.52;;;27.00;99.90;;;;;;5059551;28;20552;-75
2023/08/21 08:52:35;;;;;;;1.70;1.60;;;27.10;99.90;;;;;;5040252;28;20233;-76
2023/08/21 08:55:02;;;;;;;0.77;0.70;;;27.00;99.90;;;;;;5060808;28;20028;-81
2023/08/21 08:57:29;;;;;;;0.15;0.15;;;28.90;99.90;;;;;;5061929;28;20009;-85
2023/08/21 08:59:55;;;;;;;0.50;0.50;;;27.10;99.90;;;;;;5062172;28;20048;-82
2023/08/21 09:02:21;;;;;;;0.35;0.30;;;27.30;99.90;;;;;;5041080;28;20110;-77
2023/08/21 09:04:47;;;;;;;0.38;0.35;;;27.10;99.90;;;;;;5041297;28;20021;-77
2023/08/21 09:07:16;;;;;;;1.35;1.25;;;27.20;99.90;;;;;;5041125;28;20051;-77
2023/08/21 09:09:52;;;;;;;0.10;0.10;;;27.20;99.90;;;;;;5041532;28;20055;-81
2023/08/21 09:12:19;;;;;;;1.33;0.63;;;26.10;99.90;;;;;;5042098;28;20025;-78
2023/08/21 09:14:45;;;;;;;1.27;1.10;;;27.60;99.90;;;;;;5042107;28;20025;-76
2023/08/21 09:17:11;;;;;;;0.98;0.63;;;27.90;99.90;;;;;;5042018;28;20071;-79
2023/08/21 09:19:37;;;;;;;0.13;0.13;;;28.40;99.90;;;;;;5041961;28;20017;-76
2023/08/21 09:22:12;;;;;;;0.47;0.43;;;28.50;99.90;;;;;;5040730;28;20674;-81
2023/08/21 09:24:39;;;;;;;0.28;0.28;;;29.00;99.90;;;;;;5043761;28;20056;-79
2023/08/21 09:27:15;;;;;;;0.22;0.22;;;28.60;99.90;;;;;;5042456;28;20105;-76
2023/08/21 09:29:41;;;;;;;2.95;1.95;;;28.60;99.90;;;;;;5042881;28;20028;-75
2023/08/21 09:32:07;;;;;;;2.05;1.08;;;28.70;99.90;;;;;;5041791;28;20120;-80
2023/08/21 09:34:37;;;;;;;0.55;0.55;;;28.90;99.90;;;;;;5041774;28;20041;-77
2023/08/21 09:37:07;;;;;;;2.08;0.70;;;29.00;99.90;;;;;;5041820;28;20047;-78
2023/08/21 09:39:35;;;;;;;0.30;0.30;;;29.30;99.90;;;;;;5040844;28;20033;-77
2023/08/21 09:42:08;;;;;;;2.47;1.73;;;29.00;99.90;;;;;;5041360;28;20575;-80
2023/08/21 09:44:43;;;;;;;0.63;0.63;;;26.00;99.90;;;;;;5042142;28;20039;-80
2023/08/21 09:47:12;;;;;;;3.20;1.92;;;29.30;99.90;;;;;;5041652;28;20658;-79
2023/08/21 09:49:39;;;;;;;0.55;0.55;;;29.20;99.90;;;;;;5042491;28;20009;-85
2023/08/21 09:52:06;;;;;;;0.82;0.73;;;29.30;99.90;;;;;;5040437;28;20021;-78
2023/08/21 09:54:34;;;;;;;0.55;0.47;;;29.40;99.90;;;;;;5040134;28;20041;-87
2023/08/21 09:57:04;;;;;;;0.15;0.15;;;29.30;99.90;;;;;;5041248;28;20096;-78
2023/08/21 09:59:31;;;;;;;0.30;0.30;;;26.10;99.90;;;;;;5041725;28;20025;-77
2023/08/21 10:02:01;;;;;;;0.85;0.85;;;29.10;99.90;;;;;;5044229;28;20679;-87
2023/08/21 10:04:30;;;;;;;1.25;1.13;;;29.80;99.90;;;;;;5061322;28;20029;-80
2023/08/21 10:06:57;;;;;;;2.92;0.68;;;29.40;99.90;;;;;;5061520;28;20009;-80
2023/08/21 10:09:27;;;;;;;0.98;0.82;;;29.40;99.90;;;;;;5061599;28;20057;-78
2023/08/21 10:11:56;;;;;;;0.43;0.30;;;29.50;99.90;;;;;;5061582;28;20025;-83
2023/08/21 10:14:24;;;;;;;0.35;0.35;;;29.40;99.90;;;;;;5044554;28;20044;-88
2023/08/21 10:16:52;;;;;;;0.73;0.73;;;29.60;99.90;;;;;;5063710;28;20027;-82
2023/08/21 10:19:19;;;;;;;4.55;1.17;;;29.70;99.90;;;;;;5043990;28;20021;-82
2023/08/21 10:21:49;;;;;;;0.35;0.35;;;30.00;99.90;;;;;;5062429;28;20074;-82
2023/08/21 10:24:33;;;;;;;1.30;0.88;;;30.00;99.90;;;;;;5043821;28;20024;-80
2023/08/21 10:27:00;;;;;;;0.38;0.38;;;30.10;99.90;;;;;;5043397;28;20028;-82
2023/08/21 10:29:27;;;;;;;0.10;0.10;;;30.20;99.90;;;;;;5061534;28;20142;-84
2023/08/21 10:32:03;;;;;;;0.55;0.50;;;30.30;99.90;;;;;;5042603;28;20016;-83
2023/08/21 10:34:35;;;;;;;0.77;0.77;;;30.60;99.90;;;;;;5043588;28;20131;-87
2023/08/21 10:37:05;;;;;;;0.20;0.20;;;30.70;99.90;;;;;;5045076;28;20020;-88
2023/08/21 10:39:33;;;;;;;1.48;1.00;;;31.20;99.90;;;;;;5060685;28;20016;-91
2023/08/21 10:42:08;;;;;;;0.82;0.80;;;30.80;99.90;;;;;;5060738;28;20013;-81
2023/08/21 10:44:47;;;;;;;0.60;0.57;;;31.00;99.90;;;;;;5042784;28;20116;-91
2023/08/21 10:47:19;;;;;;;2.38;1.67;;;31.30;99.90;;;;;;5061044;28;20028;-81
2023/08/21 10:49:56;;;;;;;1.33;1.10;;;31.40;99.90;;;;;;5060972;28;20052;-78
2023/08/21 10:52:35;;;;;;;1.83;1.27;;;31.50;99.90;;;;;;5061017;28;20016;-87
2023/08/21 10:55:03;;;;;;;0.85;0.65;;;31.70;99.90;;;;;;5043618;28;20032;-78
2023/08/21 10:57:31;;;;;;;1.25;1.23;;;31.70;99.90;;;;;;5042525;28;20569;-89
2023/08/21 10:59:58;;;;;;;0.38;0.38;;;31.90;99.90;;;;;;5064044;28;20108;-78
2023/08/21 11:02:34;;;;;;;0.30;0.30;;;32.30;99.90;;;;;;5060929;28;20047;-78
2023/08/21 11:05:02;;;;;;;1.27;0.95;;;32.00;99.90;;;;;;5060553;28;20013;-82
2023/08/21 11:07:29;;;;;;;0.88;0.88;;;30.60;99.50;;;;;;5066773;28;20578;-78
2023/08/21 11:09:55;;;;;;;0.70;0.65;;;32.60;99.50;;;;;;5060536;28;20708;-77
2023/08/21 11:12:24;;;;;;;0.30;0.30;;;32.50;99.10;;;;;;5042048;28;20037;-78
2023/08/21 11:14:50;;;;;;;0.70;0.70;;;29.90;98.60;;;;;;5060646;28;20033;-87
2023/08/21 11:17:18;;;;;;;0.95;0.80;;;32.70;99.00;;;;;;5059543;28;20095;-77
2023/08/21 11:19:45;;;;;;;0.93;0.88;;;32.50;98.60;;;;;;5060231;28;20016;-77
2023/08/21 11:22:11;;;;;;;0.70;0.70;;;32.50;98.80;;;;;;5061407;28;20213;-83
2023/08/21 11:24:37;;;;;;;1.33;1.20;;;32.70;98.40;;;;;;5042538;28;20044;-86
2023/08/21 11:27:14;;;;;;;1.15;0.68;;;32.80;98.30;;;;;;5060091;28;20021;-77
2023/08/21 11:29:41;;;;;;;1.55;1.25;;;33.20;97.90;;;;;;5041713;28;20068;-83
2023/08/21 11:32:16;;;;;;;0.52;0.45;;;32.90;97.60;;;;;;5042448;28;20105;-75
2023/08/21 11:34:47;;;;;;;2.05;1.90;;;33.20;97.20;;;;;;5041388;28;20028;-81
2023/08/21 11:37:13;;;;;;;0.95;0.75;;;33.30;96.60;;;;;;5059484;28;20013;-77
2023/08/21 11:39:54;;;;;;;0.93;0.55;;;33.10;97.10;;;;;;5059357;28;20445;-82
2023/08/21 11:42:28;;;;;;;1.77;1.67;;;31.60;96.90;;;;;;5041703;28;20154;-83
2023/08/21 11:44:54;;;;;;;1.80;1.20;;;33.00;97.60;;;;;;5041460;28;20028;-75
2023/08/21 11:47:22;;;;;;;1.55;1.33;;;33.10;97.40;;;;;;5059620;28;20103;-78
2023/08/21 11:49:50;;;;;;;1.88;1.48;;;33.40;96.70;;;;;;5060235;28;20019;-80
2023/08/21 11:52:21;;;;;;;0.43;0.43;;;34.10;96.60;;;;;;5042455;28;20024;-74
2023/08/21 11:54:52;;;;;;;1.15;0.85;;;34.10;95.40;;;;;;5041469;28;20510;-84
2023/08/21 11:57:18;;;;;;;1.65;1.55;;;34.50;95.00;;;;;;5059715;28;20540;-77
2023/08/21 11:59:55;;;;;;;1.15;0.80;;;36.10;94.90;;;;;;5041651;28;20648;-77
2023/08/21 12:02:25;;;;;;;0.95;0.85;;;33.20;93.30;;;;;;5059314;28;20048;-89
2023/08/21 12:05:05;;;;;;;1.27;0.93;;;34.80;93.40;;;;;;5042064;28;20527;-86
2023/08/21 12:07:35;;;;;;;1.25;0.93;;;35.20;92.70;;;;;;5059569;28;20020;-77
2023/08/21 12:10:01;;;;;;;2.28;1.15;;;35.50;92.50;;;;;;5044672;28;20021;-86
2023/08/21 12:12:27;;;;;;;1.55;1.45;;;35.30;92.10;;;;;;5060219;28;20688;-78
2023/08/21 12:14:53;;;;;;;0.55;0.43;;;35.70;91.70;;;;;;5059423;28;20035;-77
2023/08/21 12:17:19;;;;;;;5.30;1.27;;;35.90;91.20;;;;;;5040843;28;20028;-75
2023/08/21 12:19:45;;;;;;;1.05;0.88;;;36.30;90.50;;;;;;5041316;28;20743;-76
2023/08/21 12:22:12;;;;;;;1.67;1.58;;;36.70;89.40;;;;;;5058676;28;20020;-88
2023/08/21 12:24:38;;;;;;;1.88;1.00;;;37.00;89.00;;;;;;5058720;28;20039;-79
2023/08/21 12:27:04;;;;;;;1.88;1.48;;;37.10;87.40;;;;;;5058742;28;20017;-77
2023/08/21 12:29:31;;;;;;;1.38;0.90;;;36.70;87.10;;;;;;5040558;28;20028;-77
2023/08/21 12:31:56;;;;;;;7.38;3.28;;;36.00;89.00;;;;;;5058832;28;20025;-75
2023/08/21 12:34:22;;;;;;;0.88;0.80;;;35.60;89.90;;;;;;5043687;28;20029;-77
2023/08/21 12:36:50;;;;;;;0.75;0.68;;;35.30;90.40;;;;;;5040961;28;20525;-77
2023/08/21 12:39:16;;;;;;;1.27;1.17;;;33.70;89.10;;;;;;5040701;28;20017;-78
2023/08/21 12:41:42;;;;;;;1.55;1.17;;;34.90;90.20;;;;;;5040953;28;20070;-78
2023/08/21 12:44:09;;;;;;;1.30;0.75;;;35.00;90.70;;;;;;5041471;28;20024;-78
2023/08/21 12:46:36;;;;;;;0.20;0.20;;;35.00;89.90;;;;;;5040372;28;20527;-81
2023/08/21 12:49:02;;;;;;;0.88;0.88;;;34.70;90.00;;;;;;5058465;28;20021;-77
2023/08/21 12:51:28;;;;;;;2.20;1.23;;;34.20;90.40;;;;;;5058776;28;20514;-82